Řízení letového provozu České republiky
Letiste: LKLN Aktualizace: 22.09.2019 10:25:25  UTC
 METAR LKLN 22.09. 10:30 ...
METAR LKLN 221030Z AUTO 05005KT 360V100 CAVOK 18/07 Q1015=